sensor_id;sensor_type;location;lat;lon;timestamp;P1;durP1;ratioP1;P2;durP2;ratioP2
54561;SDS011;69047;53.358;-1.486;2023-06-14T00:00:12;3.10;;;1.38;;
54561;SDS011;69047;53.358;-1.486;2023-06-14T00:02:38;4.07;;;1.30;;
54561;SDS011;69047;53.358;-1.486;2023-06-14T00:05:05;5.18;;;1.58;;
54561;SDS011;69047;53.358;-1.486;2023-06-14T00:07:34;3.25;;;1.40;;
54561;SDS011;69047;53.358;-1.486;2023-06-14T00:10:01;5.22;;;1.70;;
54561;SDS011;69047;53.358;-1.486;2023-06-14T00:12:27;5.13;;;1.20;;
54561;SDS011;69047;53.358;-1.486;2023-06-14T00:14:52;3.88;;;1.60;;
54561;SDS011;69047;53.358;-1.486;2023-06-14T00:17:17;3.25;;;1.40;;
54561;SDS011;69047;53.358;-1.486;2023-06-14T00:19:43;2.53;;;1.83;;
54561;SDS011;69047;53.358;-1.486;2023-06-14T00:22:08;2.78;;;1.35;;
54561;SDS011;69047;53.358;-1.486;2023-06-14T00:24:34;3.90;;;1.67;;
54561;SDS011;69047;53.358;-1.486;2023-06-14T00:27:00;2.83;;;1.67;;
54561;SDS011;69047;53.358;-1.486;2023-06-14T00:29:25;2.92;;;1.40;;
54561;SDS011;69047;53.358;-1.486;2023-06-14T00:31:50;7.40;;;1.83;;
54561;SDS011;69047;53.358;-1.486;2023-06-14T00:34:16;3.65;;;1.63;;
54561;SDS011;69047;53.358;-1.486;2023-06-14T00:36:41;4.53;;;1.83;;
54561;SDS011;69047;53.358;-1.486;2023-06-14T00:39:06;4.50;;;1.60;;
54561;SDS011;69047;53.358;-1.486;2023-06-14T00:41:32;2.75;;;1.40;;
54561;SDS011;69047;53.358;-1.486;2023-06-14T00:43:57;2.97;;;1.30;;
54561;SDS011;69047;53.358;-1.486;2023-06-14T00:46:23;3.08;;;1.52;;
54561;SDS011;69047;53.358;-1.486;2023-06-14T00:48:48;2.75;;;1.40;;
54561;SDS011;69047;53.358;-1.486;2023-06-14T00:51:14;4.35;;;1.90;;
54561;SDS011;69047;53.358;-1.486;2023-06-14T00:53:40;2.60;;;1.73;;
54561;SDS011;69047;53.358;-1.486;2023-06-14T00:56:11;4.03;;;1.88;;
54561;SDS011;69047;53.358;-1.486;2023-06-14T00:58:38;2.80;;;1.65;;
54561;SDS011;69047;53.358;-1.486;2023-06-14T01:01:03;4.82;;;1.77;;
54561;SDS011;69047;53.358;-1.486;2023-06-14T01:03:29;4.05;;;2.00;;
54561;SDS011;69047;53.358;-1.486;2023-06-14T01:06:05;3.13;;;1.73;;
54561;SDS011;69047;53.358;-1.486;2023-06-14T01:11:18;3.28;;;1.75;;
54561;SDS011;69047;53.358;-1.486;2023-06-14T01:13:50;2.85;;;1.73;;
54561;SDS011;69047;53.358;-1.486;2023-06-14T01:16:17;6.20;;;1.90;;
54561;SDS011;69047;53.358;-1.486;2023-06-14T01:18:43;6.05;;;1.83;;
54561;SDS011;69047;53.358;-1.486;2023-06-14T01:21:25;3.55;;;2.05;;
54561;SDS011;69047;53.358;-1.486;2023-06-14T01:23:51;4.68;;;2.10;;
54561;SDS011;69047;53.358;-1.486;2023-06-14T01:26:18;3.90;;;2.10;;
54561;SDS011;69047;53.358;-1.486;2023-06-14T01:28:45;5.47;;;2.47;;
54561;SDS011;69047;53.358;-1.486;2023-06-14T01:31:15;6.95;;;2.10;;
54561;SDS011;69047;53.358;-1.486;2023-06-14T01:33:42;4.35;;;2.25;;
54561;SDS011;69047;53.358;-1.486;2023-06-14T01:36:08;3.35;;;2.35;;
54561;SDS011;69047;53.358;-1.486;2023-06-14T01:38:35;4.45;;;2.13;;
54561;SDS011;69047;53.358;-1.486;2023-06-14T01:41:04;6.15;;;2.47;;
54561;SDS011;69047;53.358;-1.486;2023-06-14T01:43:31;6.30;;;2.97;;
54561;SDS011;69047;53.358;-1.486;2023-06-14T01:45:57;4.35;;;2.03;;
54561;SDS011;69047;53.358;-1.486;2023-06-14T01:48:22;3.65;;;2.00;;
54561;SDS011;69047;53.358;-1.486;2023-06-14T01:50:49;5.65;;;1.88;;
54561;SDS011;69047;53.358;-1.486;2023-06-14T01:53:15;8.50;;;2.42;;
54561;SDS011;69047;53.358;-1.486;2023-06-14T01:55:41;3.42;;;1.80;;
54561;SDS011;69047;53.358;-1.486;2023-06-14T01:58:08;4.15;;;1.90;;
54561;SDS011;69047;53.358;-1.486;2023-06-14T02:00:33;3.88;;;1.90;;
54561;SDS011;69047;53.358;-1.486;2023-06-14T02:02:59;5.72;;;1.83;;
54561;SDS011;69047;53.358;-1.486;2023-06-14T02:05:25;3.75;;;1.90;;
54561;SDS011;69047;53.358;-1.486;2023-06-14T02:07:51;3.85;;;2.03;;
54561;SDS011;69047;53.358;-1.486;2023-06-14T02:10:18;4.00;;;2.28;;
54561;SDS011;69047;53.358;-1.486;2023-06-14T02:12:43;3.00;;;1.85;;
54561;SDS011;69047;53.358;-1.486;2023-06-14T02:15:09;3.28;;;1.80;;
54561;SDS011;69047;53.358;-1.486;2023-06-14T02:17:41;3.67;;;1.90;;
54561;SDS011;69047;53.358;-1.486;2023-06-14T02:20:07;2.80;;;2.00;;
54561;SDS011;69047;53.358;-1.486;2023-06-14T02:22:34;2.42;;;2.00;;
54561;SDS011;69047;53.358;-1.486;2023-06-14T02:24:59;5.30;;;1.80;;
54561;SDS011;69047;53.358;-1.486;2023-06-14T02:27:25;2.65;;;2.03;;
54561;SDS011;69047;53.358;-1.486;2023-06-14T02:29:50;4.93;;;1.92;;
54561;SDS011;69047;53.358;-1.486;2023-06-14T02:32:16;2.70;;;1.73;;
54561;SDS011;69047;53.358;-1.486;2023-06-14T02:34:41;4.38;;;2.17;;
54561;SDS011;69047;53.358;-1.486;2023-06-14T02:37:06;4.28;;;1.90;;
54561;SDS011;69047;53.358;-1.486;2023-06-14T02:39:32;4.50;;;1.80;;
54561;SDS011;69047;53.358;-1.486;2023-06-14T02:41:57;3.97;;;2.13;;
54561;SDS011;69047;53.358;-1.486;2023-06-14T02:44:26;4.10;;;1.45;;
54561;SDS011;69047;53.358;-1.486;2023-06-14T02:46:52;1.83;;;1.25;;
54561;SDS011;69047;53.358;-1.486;2023-06-14T02:49:18;3.35;;;1.70;;
54561;SDS011;69047;53.358;-1.486;2023-06-14T02:51:44;2.67;;;1.77;;
54561;SDS011;69047;53.358;-1.486;2023-06-14T02:54:09;5.78;;;1.88;;
54561;SDS011;69047;53.358;-1.486;2023-06-14T02:56:35;3.90;;;1.77;;
54561;SDS011;69047;53.358;-1.486;2023-06-14T02:59:01;4.80;;;2.00;;
54561;SDS011;69047;53.358;-1.486;2023-06-14T03:01:27;4.35;;;1.95;;
54561;SDS011;69047;53.358;-1.486;2023-06-14T03:03:59;3.20;;;1.98;;
54561;SDS011;69047;53.358;-1.486;2023-06-14T03:06:24;3.25;;;2.22;;
54561;SDS011;69047;53.358;-1.486;2023-06-14T03:08:50;4.45;;;2.08;;
54561;SDS011;69047;53.358;-1.486;2023-06-14T03:11:16;3.60;;;2.38;;
54561;SDS011;69047;53.358;-1.486;2023-06-14T03:13:45;7.25;;;2.20;;
54561;SDS011;69047;53.358;-1.486;2023-06-14T03:16:11;2.67;;;1.90;;
54561;SDS011;69047;53.358;-1.486;2023-06-14T03:18:37;6.40;;;2.58;;
54561;SDS011;69047;53.358;-1.486;2023-06-14T03:21:02;3.83;;;1.90;;
54561;SDS011;69047;53.358;-1.486;2023-06-14T03:23:28;2.10;;;1.70;;
54561;SDS011;69047;53.358;-1.486;2023-06-14T03:25:53;4.03;;;2.60;;
54561;SDS011;69047;53.358;-1.486;2023-06-14T03:28:19;4.00;;;2.10;;
54561;SDS011;69047;53.358;-1.486;2023-06-14T03:30:44;5.72;;;1.83;;
54561;SDS011;69047;53.358;-1.486;2023-06-14T03:33:10;5.20;;;1.90;;
54561;SDS011;69047;53.358;-1.486;2023-06-14T03:35:35;2.85;;;2.08;;
54561;SDS011;69047;53.358;-1.486;2023-06-14T03:38:01;8.45;;;1.92;;
54561;SDS011;69047;53.358;-1.486;2023-06-14T03:40:27;6.18;;;2.22;;
54561;SDS011;69047;53.358;-1.486;2023-06-14T03:42:56;4.18;;;1.98;;
54561;SDS011;69047;53.358;-1.486;2023-06-14T03:45:21;4.00;;;1.67;;
54561;SDS011;69047;53.358;-1.486;2023-06-14T03:47:46;9.35;;;1.85;;
54561;SDS011;69047;53.358;-1.486;2023-06-14T03:50:12;1.83;;;1.40;;
54561;SDS011;69047;53.358;-1.486;2023-06-14T03:52:38;4.50;;;1.63;;
54561;SDS011;69047;53.358;-1.486;2023-06-14T03:55:03;2.83;;;1.63;;
54561;SDS011;69047;53.358;-1.486;2023-06-14T03:57:29;3.53;;;1.80;;
54561;SDS011;69047;53.358;-1.486;2023-06-14T03:59:55;1.95;;;1.30;;
54561;SDS011;69047;53.358;-1.486;2023-06-14T04:02:21;3.60;;;1.70;;
54561;SDS011;69047;53.358;-1.486;2023-06-14T04:04:47;2.38;;;1.48;;
54561;SDS011;69047;53.358;-1.486;2023-06-14T04:07:13;2.47;;;1.70;;
54561;SDS011;69047;53.358;-1.486;2023-06-14T04:09:39;4.03;;;2.13;;
54561;SDS011;69047;53.358;-1.486;2023-06-14T04:12:06;2.30;;;1.92;;
54561;SDS011;69047;53.358;-1.486;2023-06-14T04:14:33;2.28;;;1.58;;
54561;SDS011;69047;53.358;-1.486;2023-06-14T04:16:59;2.65;;;1.50;;
54561;SDS011;69047;53.358;-1.486;2023-06-14T04:19:24;4.32;;;1.55;;
54561;SDS011;69047;53.358;-1.486;2023-06-14T04:21:50;2.13;;;1.55;;
54561;SDS011;69047;53.358;-1.486;2023-06-14T04:24:15;3.72;;;1.52;;
54561;SDS011;69047;53.358;-1.486;2023-06-14T04:26:41;2.10;;;1.42;;
54561;SDS011;69047;53.358;-1.486;2023-06-14T04:29:09;2.70;;;1.63;;
54561;SDS011;69047;53.358;-1.486;2023-06-14T04:31:39;2.08;;;1.33;;
54561;SDS011;69047;53.358;-1.486;2023-06-14T04:34:05;3.05;;;1.52;;
54561;SDS011;69047;53.358;-1.486;2023-06-14T04:36:33;4.07;;;1.30;;
54561;SDS011;69047;53.358;-1.486;2023-06-14T04:39:00;3.20;;;1.85;;
54561;SDS011;69047;53.358;-1.486;2023-06-14T04:41:28;2.10;;;1.40;;
54561;SDS011;69047;53.358;-1.486;2023-06-14T04:43:56;2.70;;;1.52;;
54561;SDS011;69047;53.358;-1.486;2023-06-14T04:46:23;2.22;;;1.65;;
54561;SDS011;69047;53.358;-1.486;2023-06-14T04:48:49;2.70;;;1.40;;
54561;SDS011;69047;53.358;-1.486;2023-06-14T04:51:15;2.95;;;1.63;;
54561;SDS011;69047;53.358;-1.486;2023-06-14T04:53:41;8.73;;;1.08;;
54561;SDS011;69047;53.358;-1.486;2023-06-14T04:56:06;2.38;;;1.60;;
54561;SDS011;69047;53.358;-1.486;2023-06-14T04:58:32;1.98;;;1.33;;
54561;SDS011;69047;53.358;-1.486;2023-06-14T05:00:57;1.35;;;1.23;;
54561;SDS011;69047;53.358;-1.486;2023-06-14T05:03:24;1.45;;;1.30;;
54561;SDS011;69047;53.358;-1.486;2023-06-14T05:05:50;3.13;;;1.58;;
54561;SDS011;69047;53.358;-1.486;2023-06-14T05:08:15;4.65;;;1.50;;
54561;SDS011;69047;53.358;-1.486;2023-06-14T05:10:41;3.38;;;1.42;;
54561;SDS011;69047;53.358;-1.486;2023-06-14T05:13:07;1.65;;;1.45;;
54561;SDS011;69047;53.358;-1.486;2023-06-14T05:15:32;1.70;;;1.15;;
54561;SDS011;69047;53.358;-1.486;2023-06-14T05:17:58;2.35;;;1.25;;
54561;SDS011;69047;53.358;-1.486;2023-06-14T05:20:24;1.70;;;1.27;;
54561;SDS011;69047;53.358;-1.486;2023-06-14T05:22:50;2.13;;;1.40;;
54561;SDS011;69047;53.358;-1.486;2023-06-14T05:25:18;2.00;;;1.30;;
54561;SDS011;69047;53.358;-1.486;2023-06-14T05:27:44;1.70;;;1.20;;
54561;SDS011;69047;53.358;-1.486;2023-06-14T05:30:09;1.90;;;1.00;;
54561;SDS011;69047;53.358;-1.486;2023-06-14T05:32:35;2.15;;;0.82;;
54561;SDS011;69047;53.358;-1.486;2023-06-14T05:35:01;1.13;;;0.98;;
54561;SDS011;69047;53.358;-1.486;2023-06-14T05:37:26;1.73;;;1.00;;
54561;SDS011;69047;53.358;-1.486;2023-06-14T05:39:51;1.55;;;1.00;;
54561;SDS011;69047;53.358;-1.486;2023-06-14T05:42:17;1.45;;;0.90;;
54561;SDS011;69047;53.358;-1.486;2023-06-14T05:44:42;1.35;;;1.23;;
54561;SDS011;69047;53.358;-1.486;2023-06-14T05:47:07;4.00;;;1.40;;
54561;SDS011;69047;53.358;-1.486;2023-06-14T05:49:33;1.90;;;0.90;;
54561;SDS011;69047;53.358;-1.486;2023-06-14T05:51:58;3.15;;;1.27;;
54561;SDS011;69047;53.358;-1.486;2023-06-14T05:54:24;2.75;;;0.98;;
54561;SDS011;69047;53.358;-1.486;2023-06-14T05:56:49;2.33;;;0.90;;
54561;SDS011;69047;53.358;-1.486;2023-06-14T05:59:14;2.22;;;0.90;;
54561;SDS011;69047;53.358;-1.486;2023-06-14T06:01:40;5.28;;;1.20;;
54561;SDS011;69047;53.358;-1.486;2023-06-14T06:04:07;0.70;;;0.70;;
54561;SDS011;69047;53.358;-1.486;2023-06-14T06:06:32;1.10;;;0.77;;
54561;SDS011;69047;53.358;-1.486;2023-06-14T06:08:57;3.92;;;0.88;;
54561;SDS011;69047;53.358;-1.486;2023-06-14T06:11:23;1.00;;;0.90;;
54561;SDS011;69047;53.358;-1.486;2023-06-14T06:13:49;2.35;;;0.77;;
54561;SDS011;69047;53.358;-1.486;2023-06-14T06:16:14;0.75;;;0.70;;
54561;SDS011;69047;53.358;-1.486;2023-06-14T06:18:40;2.75;;;0.90;;
54561;SDS011;69047;53.358;-1.486;2023-06-14T06:21:05;2.20;;;0.73;;
54561;SDS011;69047;53.358;-1.486;2023-06-14T06:23:31;3.78;;;0.77;;
54561;SDS011;69047;53.358;-1.486;2023-06-14T06:25:56;1.10;;;1.00;;
54561;SDS011;69047;53.358;-1.486;2023-06-14T06:28:21;2.58;;;0.82;;
54561;SDS011;69047;53.358;-1.486;2023-06-14T06:30:47;1.58;;;0.80;;
54561;SDS011;69047;53.358;-1.486;2023-06-14T06:33:12;4.57;;;0.85;;
54561;SDS011;69047;53.358;-1.486;2023-06-14T06:35:39;3.67;;;1.23;;
54561;SDS011;69047;53.358;-1.486;2023-06-14T06:38:04;4.20;;;0.90;;
54561;SDS011;69047;53.358;-1.486;2023-06-14T06:40:30;0.93;;;0.60;;
54561;SDS011;69047;53.358;-1.486;2023-06-14T06:42:55;6.47;;;1.77;;
54561;SDS011;69047;53.358;-1.486;2023-06-14T06:45:20;6.00;;;1.70;;
54561;SDS011;69047;53.358;-1.486;2023-06-14T06:47:48;9.50;;;2.20;;
54561;SDS011;69047;53.358;-1.486;2023-06-14T06:50:13;2.42;;;1.42;;
54561;SDS011;69047;53.358;-1.486;2023-06-14T06:52:39;2.97;;;1.17;;
54561;SDS011;69047;53.358;-1.486;2023-06-14T06:55:04;5.03;;;1.00;;
54561;SDS011;69047;53.358;-1.486;2023-06-14T06:57:30;3.10;;;0.93;;
54561;SDS011;69047;53.358;-1.486;2023-06-14T06:59:56;4.18;;;1.20;;
54561;SDS011;69047;53.358;-1.486;2023-06-14T07:02:22;1.45;;;0.80;;
54561;SDS011;69047;53.358;-1.486;2023-06-14T07:04:48;3.97;;;1.30;;
54561;SDS011;69047;53.358;-1.486;2023-06-14T07:07:13;1.70;;;1.20;;
54561;SDS011;69047;53.358;-1.486;2023-06-14T07:09:39;3.40;;;0.93;;
54561;SDS011;69047;53.358;-1.486;2023-06-14T07:12:07;1.92;;;0.85;;
54561;SDS011;69047;53.358;-1.486;2023-06-14T07:14:33;0.93;;;0.63;;
54561;SDS011;69047;53.358;-1.486;2023-06-14T07:16:58;2.83;;;1.00;;
54561;SDS011;69047;53.358;-1.486;2023-06-14T07:19:24;1.75;;;0.70;;
54561;SDS011;69047;53.358;-1.486;2023-06-14T07:21:49;5.78;;;0.73;;
54561;SDS011;69047;53.358;-1.486;2023-06-14T07:24:15;2.10;;;0.70;;
54561;SDS011;69047;53.358;-1.486;2023-06-14T07:26:40;1.30;;;0.77;;
54561;SDS011;69047;53.358;-1.486;2023-06-14T07:29:06;1.33;;;0.60;;
54561;SDS011;69047;53.358;-1.486;2023-06-14T07:31:31;2.17;;;1.30;;
54561;SDS011;69047;53.358;-1.486;2023-06-14T07:33:57;1.98;;;0.73;;
54561;SDS011;69047;53.358;-1.486;2023-06-14T07:36:22;0.85;;;0.75;;
54561;SDS011;69047;53.358;-1.486;2023-06-14T07:38:48;1.15;;;0.85;;
54561;SDS011;69047;53.358;-1.486;2023-06-14T07:41:13;1.65;;;1.00;;
54561;SDS011;69047;53.358;-1.486;2023-06-14T07:43:38;2.85;;;0.85;;
54561;SDS011;69047;53.358;-1.486;2023-06-14T07:46:04;3.10;;;1.00;;
54561;SDS011;69047;53.358;-1.486;2023-06-14T07:48:29;0.60;;;0.60;;
54561;SDS011;69047;53.358;-1.486;2023-06-14T07:50:55;1.67;;;0.95;;
54561;SDS011;69047;53.358;-1.486;2023-06-14T07:53:21;0.70;;;0.50;;
54561;SDS011;69047;53.358;-1.486;2023-06-14T07:55:46;9.02;;;0.95;;
54561;SDS011;69047;53.358;-1.486;2023-06-14T07:58:13;2.72;;;0.60;;
54561;SDS011;69047;53.358;-1.486;2023-06-14T08:00:39;3.25;;;0.80;;
54561;SDS011;69047;53.358;-1.486;2023-06-14T08:03:04;2.65;;;0.93;;
54561;SDS011;69047;53.358;-1.486;2023-06-14T08:05:29;7.85;;;1.15;;
54561;SDS011;69047;53.358;-1.486;2023-06-14T08:07:55;5.25;;;1.00;;
54561;SDS011;69047;53.358;-1.486;2023-06-14T08:10:21;4.35;;;1.30;;
54561;SDS011;69047;53.358;-1.486;2023-06-14T08:12:47;4.95;;;0.98;;
54561;SDS011;69047;53.358;-1.486;2023-06-14T08:15:15;5.95;;;1.02;;
54561;SDS011;69047;53.358;-1.486;2023-06-14T08:17:42;6.35;;;0.85;;
54561;SDS011;69047;53.358;-1.486;2023-06-14T08:20:07;2.08;;;0.82;;
54561;SDS011;69047;53.358;-1.486;2023-06-14T08:22:33;3.17;;;0.82;;
54561;SDS011;69047;53.358;-1.486;2023-06-14T08:25:02;3.65;;;0.80;;
54561;SDS011;69047;53.358;-1.486;2023-06-14T08:27:29;10.43;;;1.50;;
54561;SDS011;69047;53.358;-1.486;2023-06-14T08:29:54;2.92;;;1.00;;
54561;SDS011;69047;53.358;-1.486;2023-06-14T08:32:21;8.68;;;1.05;;
54561;SDS011;69047;53.358;-1.486;2023-06-14T08:34:46;5.07;;;1.05;;
54561;SDS011;69047;53.358;-1.486;2023-06-14T08:37:12;1.73;;;0.60;;
54561;SDS011;69047;53.358;-1.486;2023-06-14T08:39:39;2.70;;;0.80;;
54561;SDS011;69047;53.358;-1.486;2023-06-14T08:42:05;3.10;;;1.08;;
54561;SDS011;69047;53.358;-1.486;2023-06-14T08:44:31;5.00;;;1.20;;
54561;SDS011;69047;53.358;-1.486;2023-06-14T08:46:57;2.22;;;1.20;;
54561;SDS011;69047;53.358;-1.486;2023-06-14T08:49:25;3.13;;;0.73;;
54561;SDS011;69047;53.358;-1.486;2023-06-14T08:51:58;1.73;;;0.70;;
54561;SDS011;69047;53.358;-1.486;2023-06-14T08:54:25;1.90;;;0.50;;
54561;SDS011;69047;53.358;-1.486;2023-06-14T08:56:52;3.10;;;0.40;;
54561;SDS011;69047;53.358;-1.486;2023-06-14T08:59:19;2.15;;;0.50;;
54561;SDS011;69047;53.358;-1.486;2023-06-14T09:01:46;0.35;;;0.30;;
54561;SDS011;69047;53.358;-1.486;2023-06-14T09:04:12;0.55;;;0.40;;
54561;SDS011;69047;53.358;-1.486;2023-06-14T09:06:38;6.35;;;0.70;;
54561;SDS011;69047;53.358;-1.486;2023-06-14T09:09:03;3.05;;;0.80;;
54561;SDS011;69047;53.358;-1.486;2023-06-14T09:11:29;1.27;;;0.40;;
54561;SDS011;69047;53.358;-1.486;2023-06-14T09:13:56;1.02;;;0.45;;
54561;SDS011;69047;53.358;-1.486;2023-06-14T09:16:32;0.95;;;0.40;;
54561;SDS011;69047;53.358;-1.486;2023-06-14T09:18:58;1.48;;;0.20;;
54561;SDS011;69047;53.358;-1.486;2023-06-14T09:21:23;1.30;;;0.43;;
54561;SDS011;69047;53.358;-1.486;2023-06-14T09:23:49;0.45;;;0.28;;
54561;SDS011;69047;53.358;-1.486;2023-06-14T09:26:15;0.52;;;0.40;;
54561;SDS011;69047;53.358;-1.486;2023-06-14T09:28:42;0.52;;;0.20;;
54561;SDS011;69047;53.358;-1.486;2023-06-14T09:31:12;2.05;;;0.20;;
54561;SDS011;69047;53.358;-1.486;2023-06-14T09:33:45;0.75;;;0.30;;
54561;SDS011;69047;53.358;-1.486;2023-06-14T09:36:26;2.38;;;0.20;;
54561;SDS011;69047;53.358;-1.486;2023-06-14T09:38:55;0.30;;;0.20;;
54561;SDS011;69047;53.358;-1.486;2023-06-14T09:41:35;0.13;;;0.13;;
54561;SDS011;69047;53.358;-1.486;2023-06-14T09:44:05;2.27;;;0.10;;
54561;SDS011;69047;53.358;-1.486;2023-06-14T09:46:32;0.93;;;0.20;;
54561;SDS011;69047;53.358;-1.486;2023-06-14T09:48:58;0.20;;;0.20;;
54561;SDS011;69047;53.358;-1.486;2023-06-14T09:51:24;0.22;;;0.20;;
54561;SDS011;69047;53.358;-1.486;2023-06-14T09:53:51;0.77;;;0.30;;
54561;SDS011;69047;53.358;-1.486;2023-06-14T09:56:35;3.28;;;0.30;;
54561;SDS011;69047;53.358;-1.486;2023-06-14T09:59:04;0.63;;;0.32;;
54561;SDS011;69047;53.358;-1.486;2023-06-14T10:01:32;0.20;;;0.20;;
54561;SDS011;69047;53.358;-1.486;2023-06-14T10:04:05;1.15;;;0.30;;
54561;SDS011;69047;53.358;-1.486;2023-06-14T10:06:31;0.20;;;0.10;;
54561;SDS011;69047;53.358;-1.486;2023-06-14T10:08:57;0.22;;;0.22;;
54561;SDS011;69047;53.358;-1.486;2023-06-14T10:11:27;0.35;;;0.17;;
54561;SDS011;69047;53.358;-1.486;2023-06-14T10:13:55;0.20;;;0.20;;
54561;SDS011;69047;53.358;-1.486;2023-06-14T10:22:04;0.68;;;0.30;;
54561;SDS011;69047;53.358;-1.486;2023-06-14T10:24:42;0.60;;;0.30;;
54561;SDS011;69047;53.358;-1.486;2023-06-14T10:27:09;0.70;;;0.20;;
54561;SDS011;69047;53.358;-1.486;2023-06-14T10:29:48;1.25;;;0.30;;
54561;SDS011;69047;53.358;-1.486;2023-06-14T10:32:26;0.52;;;0.28;;
54561;SDS011;69047;53.358;-1.486;2023-06-14T10:37:21;0.65;;;0.40;;
54561;SDS011;69047;53.358;-1.486;2023-06-14T10:39:47;0.28;;;0.25;;
54561;SDS011;69047;53.358;-1.486;2023-06-14T10:42:13;1.48;;;0.30;;
54561;SDS011;69047;53.358;-1.486;2023-06-14T10:47:25;0.70;;;0.10;;
54561;SDS011;69047;53.358;-1.486;2023-06-14T10:49:55;0.50;;;0.22;;
54561;SDS011;69047;53.358;-1.486;2023-06-14T10:52:27;0.85;;;0.20;;
54561;SDS011;69047;53.358;-1.486;2023-06-14T10:57:34;2.15;;;0.30;;
54561;SDS011;69047;53.358;-1.486;2023-06-14T11:00:02;0.88;;;0.20;;
54561;SDS011;69047;53.358;-1.486;2023-06-14T11:11:13;3.53;;;0.30;;
54561;SDS011;69047;53.358;-1.486;2023-06-14T11:13:42;0.38;;;0.20;;
54561;SDS011;69047;53.358;-1.486;2023-06-14T11:16:16;0.30;;;0.30;;
54561;SDS011;69047;53.358;-1.486;2023-06-14T11:21:08;0.20;;;0.20;;
54561;SDS011;69047;53.358;-1.486;2023-06-14T11:23:34;0.10;;;0.10;;
54561;SDS011;69047;53.358;-1.486;2023-06-14T11:26:00;0.30;;;0.20;;
54561;SDS011;69047;53.358;-1.486;2023-06-14T11:28:35;0.10;;;0.10;;
54561;SDS011;69047;53.358;-1.486;2023-06-14T11:31:04;0.20;;;0.10;;
54561;SDS011;69047;53.358;-1.486;2023-06-14T11:33:29;0.43;;;0.25;;
54561;SDS011;69047;53.358;-1.486;2023-06-14T11:35:55;0.30;;;0.20;;
54561;SDS011;69047;53.358;-1.486;2023-06-14T11:38:20;0.85;;;0.20;;
54561;SDS011;69047;53.358;-1.486;2023-06-14T11:40:46;0.30;;;0.20;;
54561;SDS011;69047;53.358;-1.486;2023-06-14T11:43:11;1.80;;;0.25;;
54561;SDS011;69047;53.358;-1.486;2023-06-14T11:45:38;2.38;;;0.43;;
54561;SDS011;69047;53.358;-1.486;2023-06-14T11:48:04;0.80;;;0.28;;
54561;SDS011;69047;53.358;-1.486;2023-06-14T11:50:29;0.10;;;0.10;;
54561;SDS011;69047;53.358;-1.486;2023-06-14T11:52:55;2.05;;;0.22;;
54561;SDS011;69047;53.358;-1.486;2023-06-14T11:55:22;0.10;;;0.10;;
54561;SDS011;69047;53.358;-1.486;2023-06-14T11:57:48;0.73;;;0.40;;
54561;SDS011;69047;53.358;-1.486;2023-06-14T12:00:13;0.73;;;0.20;;
54561;SDS011;69047;53.358;-1.486;2023-06-14T12:02:40;0.52;;;0.32;;
54561;SDS011;69047;53.358;-1.486;2023-06-14T12:05:07;0.10;;;0.10;;
54561;SDS011;69047;53.358;-1.486;2023-06-14T12:07:36;0.57;;;0.20;;
54561;SDS011;69047;53.358;-1.486;2023-06-14T12:12:28;0.10;;;0.10;;
54561;SDS011;69047;53.358;-1.486;2023-06-14T12:14:57;1.27;;;0.20;;
54561;SDS011;69047;53.358;-1.486;2023-06-14T12:17:23;0.40;;;0.20;;
54561;SDS011;69047;53.358;-1.486;2023-06-14T12:19:49;0.17;;;0.10;;
54561;SDS011;69047;53.358;-1.486;2023-06-14T12:22:15;2.13;;;0.30;;
54561;SDS011;69047;53.358;-1.486;2023-06-14T12:24:44;1.35;;;0.20;;
54561;SDS011;69047;53.358;-1.486;2023-06-14T12:27:10;0.20;;;0.20;;
54561;SDS011;69047;53.358;-1.486;2023-06-14T12:29:40;0.25;;;0.25;;
54561;SDS011;69047;53.358;-1.486;2023-06-14T12:32:08;1.95;;;0.20;;
54561;SDS011;69047;53.358;-1.486;2023-06-14T12:34:34;0.10;;;0.10;;
54561;SDS011;69047;53.358;-1.486;2023-06-14T12:37:00;1.55;;;0.32;;
54561;SDS011;69047;53.358;-1.486;2023-06-14T12:39:26;0.40;;;0.22;;
54561;SDS011;69047;53.358;-1.486;2023-06-14T12:41:51;0.20;;;0.20;;
54561;SDS011;69047;53.358;-1.486;2023-06-14T12:44:17;0.25;;;0.20;;
54561;SDS011;69047;53.358;-1.486;2023-06-14T12:46:42;1.48;;;0.10;;
54561;SDS011;69047;53.358;-1.486;2023-06-14T12:49:11;0.75;;;0.28;;
54561;SDS011;69047;53.358;-1.486;2023-06-14T12:51:37;0.20;;;0.20;;
54561;SDS011;69047;53.358;-1.486;2023-06-14T12:54:04;0.30;;;0.20;;
54561;SDS011;69047;53.358;-1.486;2023-06-14T12:56:29;0.17;;;0.17;;
54561;SDS011;69047;53.358;-1.486;2023-06-14T12:58:55;0.40;;;0.40;;
54561;SDS011;69047;53.358;-1.486;2023-06-14T13:01:20;0.50;;;0.30;;
54561;SDS011;69047;53.358;-1.486;2023-06-14T13:03:46;0.20;;;0.20;;
54561;SDS011;69047;53.358;-1.486;2023-06-14T13:06:12;1.80;;;0.10;;
54561;SDS011;69047;53.358;-1.486;2023-06-14T13:08:37;0.57;;;0.13;;
54561;SDS011;69047;53.358;-1.486;2023-06-14T13:11:03;0.30;;;0.30;;
54561;SDS011;69047;53.358;-1.486;2023-06-14T13:13:28;2.15;;;0.20;;
54561;SDS011;69047;53.358;-1.486;2023-06-14T13:15:54;0.20;;;0.20;;
54561;SDS011;69047;53.358;-1.486;2023-06-14T13:18:19;2.03;;;0.22;;
54561;SDS011;69047;53.358;-1.486;2023-06-14T13:20:45;0.30;;;0.10;;
54561;SDS011;69047;53.358;-1.486;2023-06-14T13:23:11;0.85;;;0.30;;
54561;SDS011;69047;53.358;-1.486;2023-06-14T13:25:37;1.55;;;0.20;;
54561;SDS011;69047;53.358;-1.486;2023-06-14T13:28:03;0.13;;;0.10;;
54561;SDS011;69047;53.358;-1.486;2023-06-14T13:30:29;0.57;;;0.30;;
54561;SDS011;69047;53.358;-1.486;2023-06-14T13:32:55;0.20;;;0.20;;
54561;SDS011;69047;53.358;-1.486;2023-06-14T13:35:21;2.78;;;0.82;;
54561;SDS011;69047;53.358;-1.486;2023-06-14T13:37:47;2.30;;;0.20;;
54561;SDS011;69047;53.358;-1.486;2023-06-14T13:40:13;0.20;;;0.20;;
54561;SDS011;69047;53.358;-1.486;2023-06-14T13:42:38;0.10;;;0.10;;
54561;SDS011;69047;53.358;-1.486;2023-06-14T13:45:04;0.75;;;0.20;;
54561;SDS011;69047;53.358;-1.486;2023-06-14T13:47:30;0.30;;;0.30;;
54561;SDS011;69047;53.358;-1.486;2023-06-14T13:49:56;0.17;;;0.17;;
54561;SDS011;69047;53.358;-1.486;2023-06-14T13:52:24;0.38;;;0.20;;
54561;SDS011;69047;53.358;-1.486;2023-06-14T13:54:51;1.52;;;0.20;;
54561;SDS011;69047;53.358;-1.486;2023-06-14T13:57:19;0.45;;;0.22;;
54561;SDS011;69047;53.358;-1.486;2023-06-14T13:59:51;0.32;;;0.10;;
54561;SDS011;69047;53.358;-1.486;2023-06-14T14:02:21;0.30;;;0.20;;
54561;SDS011;69047;53.358;-1.486;2023-06-14T14:04:51;2.67;;;0.20;;
54561;SDS011;69047;53.358;-1.486;2023-06-14T14:07:20;0.88;;;0.30;;
54561;SDS011;69047;53.358;-1.486;2023-06-14T14:09:47;0.10;;;0.10;;
54561;SDS011;69047;53.358;-1.486;2023-06-14T14:12:14;0.55;;;0.20;;
54561;SDS011;69047;53.358;-1.486;2023-06-14T14:14:42;0.40;;;0.20;;
54561;SDS011;69047;53.358;-1.486;2023-06-14T14:17:09;0.52;;;0.22;;
54561;SDS011;69047;53.358;-1.486;2023-06-14T14:19:36;0.55;;;0.10;;
54561;SDS011;69047;53.358;-1.486;2023-06-14T14:22:03;0.45;;;0.20;;
54561;SDS011;69047;53.358;-1.486;2023-06-14T14:24:32;0.10;;;0.10;;
54561;SDS011;69047;53.358;-1.486;2023-06-14T14:26:59;0.10;;;0.10;;
54561;SDS011;69047;53.358;-1.486;2023-06-14T14:29:25;0.13;;;0.13;;
54561;SDS011;69047;53.358;-1.486;2023-06-14T14:31:54;0.20;;;0.10;;
54561;SDS011;69047;53.358;-1.486;2023-06-14T14:34:22;0.10;;;0.10;;
54561;SDS011;69047;53.358;-1.486;2023-06-14T14:36:53;3.05;;;0.28;;
54561;SDS011;69047;53.358;-1.486;2023-06-14T14:39:20;0.30;;;0.20;;
54561;SDS011;69047;53.358;-1.486;2023-06-14T14:41:49;0.05;;;0.05;;
54561;SDS011;69047;53.358;-1.486;2023-06-14T14:44:16;0.45;;;0.20;;
54561;SDS011;69047;53.358;-1.486;2023-06-14T14:46:43;6.43;;;0.40;;
54561;SDS011;69047;53.358;-1.486;2023-06-14T14:49:10;0.43;;;0.20;;
54561;SDS011;69047;53.358;-1.486;2023-06-14T14:51:36;0.93;;;0.20;;
54561;SDS011;69047;53.358;-1.486;2023-06-14T14:54:03;2.33;;;0.20;;
54561;SDS011;69047;53.358;-1.486;2023-06-14T14:56:28;0.25;;;0.20;;
54561;SDS011;69047;53.358;-1.486;2023-06-14T14:58:54;0.30;;;0.20;;